Time;durP1;ratioP1;P1;durP2;ratioP2;P2;SDS_P1;SDS_P2;PMS_P1;PMS_P2;Temp;Humidity;BMP_temperature;BMP_pressure;BME280_temperature;BME280_humidity;BME280_pressure;Samples;Min_cycle;Max_cycle;Signal;HPM_P1;HPM_P2
2021/01/15 00:01:59;;;;;;;3.93;1.50;;;13.30;79.50;;;;;;5108583;28;20957;-35
2021/01/15 00:04:31;;;;;;;2.90;1.40;;;13.20;81.80;;;;;;5112333;28;20571;-36
2021/01/15 00:07:05;;;;;;;2.13;1.30;;;13.10;80.30;;;;;;5113494;28;20445;-34
2021/01/15 00:09:35;;;;;;;1.37;1.23;;;13.10;81.50;;;;;;5104518;28;20477;-34
2021/01/15 00:12:07;;;;;;;6.93;1.60;;;12.90;80.70;;;;;;5112347;28;20765;-34
2021/01/15 00:14:37;;;;;;;1.57;1.20;;;12.80;80.30;;;;;;5097296;28;20513;-33
2021/01/15 00:17:07;;;;;;;4.10;1.83;;;12.70;80.60;;;;;;5113094;28;20456;-34
2021/01/15 00:19:37;;;;;;;1.63;1.30;;;12.60;81.10;;;;;;5112843;28;20438;-35
2021/01/15 00:22:08;;;;;;;4.00;1.60;;;12.60;80.40;;;;;;5112555;28;20498;-31
2021/01/15 00:24:37;;;;;;;3.20;1.10;;;12.60;80.00;;;;;;5113011;27;20457;-35
2021/01/15 00:27:09;;;;;;;3.30;1.20;;;12.50;80.50;;;;;;5095813;28;20470;-32
2021/01/15 00:29:42;;;;;;;5.23;1.67;;;12.50;81.00;;;;;;5112070;28;20476;-35
2021/01/15 00:32:12;;;;;;;5.50;1.53;;;12.40;80.80;;;;;;5112886;28;20493;-33
2021/01/15 00:34:42;;;;;;;2.10;1.37;;;12.30;81.10;;;;;;5112116;28;20456;-32
2021/01/15 00:37:13;;;;;;;1.90;1.60;;;12.20;82.80;;;;;;5110912;28;20447;-35
2021/01/15 00:39:43;;;;;;;2.37;1.30;;;12.10;83.50;;;;;;5099958;28;20444;-32
2021/01/15 00:42:14;;;;;;;2.50;1.10;;;11.90;82.90;;;;;;5111736;28;20452;-34
2021/01/15 00:44:46;;;;;;;6.40;1.97;;;11.90;84.60;;;;;;5111734;28;20529;-33
2021/01/15 00:47:16;;;;;;;1.63;1.25;;;11.80;84.50;;;;;;5102303;28;21173;-34
2021/01/15 00:49:46;;;;;;;5.23;1.50;;;11.80;84.30;;;;;;5111758;28;20219;-34
2021/01/15 00:52:18;;;;;;;2.87;2.17;;;11.60;84.90;;;;;;5099239;28;20465;-31
2021/01/15 00:54:48;;;;;;;3.00;1.53;;;11.60;86.20;;;;;;5112681;28;20503;-32
2021/01/15 00:57:19;;;;;;;2.10;1.50;;;11.50;86.40;;;;;;5111444;28;20502;-36
2021/01/15 00:59:49;;;;;;;2.55;1.80;;;11.50;86.70;;;;;;5112186;28;20512;-32
2021/01/15 01:02:19;;;;;;;2.90;1.90;;;11.40;86.30;;;;;;5111125;27;20312;-35
2021/01/15 01:04:51;;;;;;;2.03;1.70;;;11.40;86.70;;;;;;5111750;28;20734;-32
2021/01/15 01:07:21;;;;;;;3.15;2.03;;;11.40;86.80;;;;;;5112104;28;20227;-35
2021/01/15 01:09:57;;;;;;;2.60;2.20;;;11.40;85.90;;;;;;5111994;28;20225;-33
2021/01/15 01:12:28;;;;;;;2.35;1.60;;;11.40;87.40;;;;;;5111165;28;20585;-33
2021/01/15 01:14:58;;;;;;;2.33;1.40;;;11.30;87.70;;;;;;5112211;28;20194;-34
2021/01/15 01:17:29;;;;;;;6.23;2.50;;;11.30;88.50;;;;;;5111704;28;20611;-33
2021/01/15 01:19:59;;;;;;;3.47;2.10;;;11.20;88.20;;;;;;5112547;28;20456;-32
2021/01/15 01:22:29;;;;;;;4.20;2.30;;;11.20;88.70;;;;;;5111456;28;20204;-33
2021/01/15 01:25:13;;;;;;;2.30;1.67;;;11.20;88.50;;;;;;5111899;28;20202;-32
2021/01/15 01:27:52;;;;;;;2.53;2.00;;;11.20;88.70;;;;;;5111007;28;20476;-34
2021/01/15 01:30:27;;;;;;;2.08;1.83;;;11.20;88.00;;;;;;5111811;28;20216;-33
2021/01/15 01:32:57;;;;;;;2.78;1.95;;;11.10;88.90;;;;;;5111917;28;20721;-35
2021/01/15 01:35:27;;;;;;;4.18;2.55;;;11.10;89.50;;;;;;5111431;27;20198;-29
2021/01/15 01:37:57;;;;;;;3.00;1.80;;;11.10;88.80;;;;;;5111600;28;20196;-34
2021/01/15 01:40:28;;;;;;;2.28;1.90;;;11.10;88.80;;;;;;5101468;28;20713;-31
2021/01/15 01:42:59;;;;;;;2.92;2.10;;;11.10;89.60;;;;;;5094735;28;20195;-31
2021/01/15 01:45:31;;;;;;;4.35;3.45;;;11.10;89.60;;;;;;5111232;28;20190;-29
2021/01/15 01:48:02;;;;;;;5.00;2.70;;;11.10;89.70;;;;;;5111350;28;20201;-36
2021/01/15 01:50:36;;;;;;;3.97;2.70;;;11.10;89.60;;;;;;5111082;28;20235;-35
2021/01/15 01:53:18;;;;;;;3.20;2.47;;;11.10;89.20;;;;;;5110970;28;20237;-33
2021/01/15 01:55:52;;;;;;;3.45;2.40;;;11.10;89.60;;;;;;5110397;28;20781;-35
2021/01/15 01:58:25;;;;;;;3.47;2.60;;;11.10;90.10;;;;;;5111040;28;20192;-36
2021/01/15 02:01:00;;;;;;;4.57;3.20;;;11.10;90.30;;;;;;5110759;28;20450;-32
2021/01/15 02:03:32;;;;;;;3.08;2.50;;;11.10;90.80;;;;;;5111024;28;20709;-35
2021/01/15 02:06:06;;;;;;;4.30;2.70;;;11.10;90.60;;;;;;5110838;28;20619;-31
2021/01/15 02:08:40;;;;;;;6.68;3.33;;;10.80;93.90;;;;;;5110947;28;20197;-32
2021/01/15 02:11:23;;;;;;;4.70;3.67;;;10.70;93.60;;;;;;5109868;28;20243;-31
2021/01/15 02:14:07;;;;;;;5.00;4.35;;;10.80;94.60;;;;;;5110907;28;20588;-33
2021/01/15 02:16:51;;;;;;;5.25;3.90;;;10.70;96.30;;;;;;5109762;28;20665;-34
2021/01/15 02:19:56;;;;;;;6.15;4.30;;;10.70;97.80;;;;;;5109349;28;20213;-35
2021/01/15 02:22:45;;;;;;;4.47;3.88;;;10.70;99.20;;;;;;5110426;28;20584;-31
2021/01/15 02:25:30;;;;;;;6.30;5.25;;;10.70;99.90;;;;;;5110136;28;20262;-37
2021/01/15 02:28:26;;;;;;;6.55;4.55;;;10.70;99.90;;;;;;5110271;28;20193;-33
2021/01/15 02:31:13;;;;;;;7.57;5.60;;;10.80;99.90;;;;;;5110363;27;20259;-32
2021/01/15 02:33:55;;;;;;;8.27;5.83;;;10.80;99.90;;;;;;5095814;28;20508;-33
2021/01/15 02:36:33;;;;;;;7.50;6.57;;;10.80;99.90;;;;;;5110179;28;20541;-35
2021/01/15 02:39:13;;;;;;;11.60;6.50;;;10.90;99.90;;;;;;5110477;28;20444;-35
2021/01/15 02:41:47;;;;;;;6.03;5.53;;;10.90;99.90;;;;;;5093840;28;20437;-34
2021/01/15 02:44:27;;;;;;;8.17;6.67;;;11.00;99.90;;;;;;5110240;28;20451;-34
2021/01/15 02:47:00;;;;;;;9.07;7.53;;;11.10;99.90;;;;;;5110175;28;20464;-34
2021/01/15 02:49:35;;;;;;;7.77;7.03;;;11.20;99.90;;;;;;5110007;28;20765;-33
2021/01/15 02:52:09;;;;;;;6.47;5.85;;;11.30;99.90;;;;;;5110194;28;20477;-35
2021/01/15 02:54:39;;;;;;;7.30;6.63;;;11.30;99.90;;;;;;5110118;28;20259;-33
2021/01/15 02:57:11;;;;;;;8.13;7.33;;;11.30;99.90;;;;;;5109333;28;20762;-31
2021/01/15 02:59:42;;;;;;;8.70;7.77;;;11.30;99.90;;;;;;5110029;28;20455;-34
2021/01/15 03:02:22;;;;;;;7.67;6.87;;;11.30;99.90;;;;;;5109535;28;20496;-33
2021/01/15 03:04:57;;;;;;;7.87;7.17;;;11.30;99.90;;;;;;5109805;28;20491;-29
2021/01/15 03:07:31;;;;;;;8.20;7.03;;;11.20;99.90;;;;;;5109552;28;20479;-30
2021/01/15 03:10:07;;;;;;;7.47;6.77;;;11.30;99.90;;;;;;5109992;28;20597;-31
2021/01/15 03:12:40;;;;;;;8.23;7.13;;;11.20;99.90;;;;;;5109002;28;20452;-32
2021/01/15 03:15:12;;;;;;;8.70;7.40;;;11.10;99.90;;;;;;5109947;28;20634;-31
2021/01/15 03:17:46;;;;;;;10.50;6.50;;;11.20;99.90;;;;;;5109460;28;20451;-33
2021/01/15 03:20:18;;;;;;;7.72;6.60;;;11.20;99.90;;;;;;5109887;28;20446;-32
2021/01/15 03:22:50;;;;;;;6.65;6.05;;;11.20;99.90;;;;;;5110011;28;20201;-34
2021/01/15 03:25:20;;;;;;;7.63;6.83;;;11.20;99.90;;;;;;5109741;28;20202;-37
2021/01/15 03:27:51;;;;;;;7.73;6.20;;;11.30;99.90;;;;;;5112725;28;20914;-32
2021/01/15 03:30:28;;;;;;;7.97;7.20;;;11.10;99.90;;;;;;5113624;28;20585;-32
2021/01/15 03:33:23;;;;;;;10.40;9.40;;;10.90;99.90;;;;;;5113955;28;20436;-34
2021/01/15 03:36:12;;;;;;;12.93;11.57;;;10.80;99.90;;;;;;5104955;28;20437;-31
2021/01/15 03:38:45;;;;;;;11.70;10.60;;;10.70;99.90;;;;;;5111655;28;20449;-32
2021/01/15 03:41:15;;;;;;;10.38;9.30;;;10.60;99.90;;;;;;5108228;28;20450;-35
2021/01/15 03:43:47;;;;;;;10.73;9.53;;;10.70;99.90;;;;;;5112743;28;20192;-33
2021/01/15 03:46:21;;;;;;;12.17;10.77;;;10.70;99.90;;;;;;5109113;28;20552;-30
2021/01/15 03:48:56;;;;;;;14.23;9.37;;;10.80;99.90;;;;;;5097000;28;20450;-31
2021/01/15 03:51:27;;;;;;;9.57;8.57;;;10.70;99.90;;;;;;5113335;28;20470;-28
2021/01/15 03:53:58;;;;;;;8.40;6.90;;;10.70;99.90;;;;;;5111671;28;20588;-32
2021/01/15 03:56:35;;;;;;;8.60;7.55;;;10.60;99.90;;;;;;5113088;28;20213;-29
2021/01/15 03:59:08;;;;;;;8.07;6.60;;;10.50;99.90;;;;;;5096263;28;20333;-29
2021/01/15 04:01:45;;;;;;;7.85;6.75;;;10.50;99.90;;;;;;5112760;28;20629;-31
2021/01/15 04:04:18;;;;;;;6.65;6.10;;;10.60;99.90;;;;;;5108443;28;20260;-29
2021/01/15 04:07:05;;;;;;;9.98;7.00;;;10.50;99.90;;;;;;5110501;28;20261;-30
2021/01/15 04:09:37;;;;;;;8.13;5.95;;;10.50;99.90;;;;;;5107148;28;20209;-33
2021/01/15 04:12:15;;;;;;;5.88;5.22;;;10.50;99.90;;;;;;5110383;28;20662;-31
2021/01/15 04:14:52;;;;;;;6.82;6.03;;;10.60;99.90;;;;;;5113075;28;20266;-33
2021/01/15 04:17:24;;;;;;;6.60;4.97;;;10.50;99.90;;;;;;5112974;28;20185;-33
2021/01/15 04:19:56;;;;;;;6.63;4.60;;;10.50;99.90;;;;;;5112815;28;20190;-30
2021/01/15 04:25:29;;;;;;;4.88;4.38;;;10.50;99.90;;;;;;5106700;28;20217;-32
2021/01/15 04:28:06;;;;;;;3.88;3.50;;;10.40;99.90;;;;;;5113144;28;20659;-29
2021/01/15 04:30:37;;;;;;;4.13;3.72;;;10.40;99.90;;;;;;5112484;28;20283;-33
2021/01/15 04:33:07;;;;;;;4.03;3.05;;;10.40;99.70;;;;;;5113075;28;20208;-34
2021/01/15 04:35:37;;;;;;;2.90;2.65;;;10.40;99.90;;;;;;5107170;27;20206;-32
2021/01/15 04:38:11;;;;;;;4.03;3.35;;;10.30;99.90;;;;;;5109523;28;20577;-32
2021/01/15 04:40:46;;;;;;;5.55;2.65;;;10.30;99.60;;;;;;5096868;28;20280;-34
2021/01/15 04:43:20;;;;;;;4.03;2.88;;;10.30;99.50;;;;;;5112257;28;20193;-33
2021/01/15 04:45:57;;;;;;;5.72;2.53;;;10.30;99.60;;;;;;5112328;28;20557;-32
2021/01/15 04:48:46;;;;;;;2.42;2.22;;;10.40;99.80;;;;;;5112134;28;20657;-30
2021/01/15 04:51:24;;;;;;;2.55;2.35;;;10.40;99.80;;;;;;5105975;28;20225;-33
2021/01/15 04:54:02;;;;;;;2.30;1.80;;;10.40;99.60;;;;;;5102251;28;20207;-29
2021/01/15 04:56:51;;;;;;;4.25;2.20;;;10.40;99.70;;;;;;5107772;28;20610;-33
2021/01/15 04:59:25;;;;;;;3.63;2.65;;;10.30;99.90;;;;;;5112157;28;20213;-34
2021/01/15 05:02:09;;;;;;;3.47;2.53;;;10.30;99.90;;;;;;5112240;28;20232;-31
2021/01/15 05:04:42;;;;;;;3.15;2.22;;;10.30;99.80;;;;;;5095030;28;20232;-32
2021/01/15 05:07:16;;;;;;;3.33;2.40;;;10.40;99.90;;;;;;5112120;28;20189;-33
2021/01/15 05:09:56;;;;;;;5.15;2.72;;;10.30;99.90;;;;;;5111723;28;20218;-31
2021/01/15 05:12:44;;;;;;;2.78;1.80;;;10.30;99.90;;;;;;5110892;28;20210;-29
2021/01/15 05:15:26;;;;;;;2.47;2.17;;;10.30;99.90;;;;;;5110647;28;20199;-33
2021/01/15 05:18:01;;;;;;;6.70;2.97;;;10.30;99.90;;;;;;5100044;28;20197;-31
2021/01/15 05:20:40;;;;;;;3.47;2.45;;;10.20;99.90;;;;;;5109888;28;20202;-32
2021/01/15 05:23:13;;;;;;;4.15;2.55;;;10.30;99.90;;;;;;5109906;28;20201;-34
2021/01/15 05:25:50;;;;;;;2.92;2.30;;;10.30;99.90;;;;;;5104292;28;20571;-33
2021/01/15 05:28:22;;;;;;;3.92;2.70;;;10.30;99.90;;;;;;5111648;28;20186;-38
2021/01/15 05:30:58;;;;;;;4.07;2.85;;;10.20;99.90;;;;;;5111069;28;20325;-29
2021/01/15 05:33:34;;;;;;;3.50;2.23;;;10.10;99.90;;;;;;5106633;28;20259;-29
2021/01/15 05:36:47;;;;;;;3.65;2.28;;;10.10;99.90;;;;;;5111277;28;20638;-35
2021/01/15 05:39:28;;;;;;;2.88;2.15;;;10.00;99.90;;;;;;5101698;28;20318;-37
2021/01/15 05:42:02;;;;;;;2.90;2.15;;;10.10;99.90;;;;;;5108896;28;20201;-32
2021/01/15 05:44:35;;;;;;;4.18;2.45;;;10.10;99.90;;;;;;5091126;28;20639;-35
2021/01/15 05:47:05;;;;;;;3.05;2.60;;;10.10;99.90;;;;;;5108135;28;20298;-32
2021/01/15 05:49:39;;;;;;;4.00;2.58;;;10.10;99.90;;;;;;5110338;28;20550;-30
2021/01/15 05:52:09;;;;;;;4.68;4.30;;;10.10;99.90;;;;;;5108364;28;20274;-32
2021/01/15 05:54:47;;;;;;;5.53;4.23;;;10.20;99.90;;;;;;5110658;28;20212;-28
2021/01/15 05:57:35;;;;;;;6.03;5.07;;;10.30;99.90;;;;;;5109848;28;20443;-31
2021/01/15 06:03:22;;;;;;;4.03;3.67;;;10.30;99.90;;;;;;5109754;28;20195;-35
2021/01/15 06:05:54;;;;;;;4.80;3.30;;;10.30;99.90;;;;;;5104837;28;20320;-34
2021/01/15 06:08:24;;;;;;;6.03;3.60;;;10.30;99.90;;;;;;5110122;28;20275;-29
2021/01/15 06:10:54;;;;;;;4.88;4.38;;;10.30;99.90;;;;;;5108181;28;20255;-31
2021/01/15 06:13:38;;;;;;;3.42;3.20;;;10.20;99.90;;;;;;5111203;28;20200;-29
2021/01/15 06:16:18;;;;;;;4.25;3.33;;;10.20;99.90;;;;;;5109741;28;20290;-31
2021/01/15 06:18:59;;;;;;;6.03;3.38;;;10.20;99.90;;;;;;5101108;28;20200;-33
2021/01/15 06:21:34;;;;;;;6.35;3.97;;;10.30;99.90;;;;;;5102100;28;20202;-32
2021/01/15 06:24:06;;;;;;;4.13;3.70;;;10.30;99.90;;;;;;5105004;28;20211;-32
2021/01/15 06:26:38;;;;;;;4.57;4.15;;;10.20;99.90;;;;;;5108806;28;20448;-32
2021/01/15 06:29:11;;;;;;;4.63;4.22;;;10.30;99.90;;;;;;5108640;28;20633;-34
2021/01/15 06:31:50;;;;;;;5.45;4.32;;;10.20;99.90;;;;;;5104869;28;20316;-28
2021/01/15 06:34:21;;;;;;;7.40;3.80;;;10.30;99.90;;;;;;5104680;28;20276;-33
2021/01/15 06:36:53;;;;;;;5.75;4.00;;;10.30;99.90;;;;;;5099063;28;20281;-34
2021/01/15 06:39:24;;;;;;;3.53;2.97;;;10.30;99.90;;;;;;5104783;28;20204;-35
2021/01/15 06:42:03;;;;;;;4.07;3.60;;;10.40;99.90;;;;;;5106025;28;20492;-30
2021/01/15 06:44:34;;;;;;;3.50;3.20;;;10.30;99.90;;;;;;5090401;28;20210;-36
2021/01/15 06:47:07;;;;;;;4.43;4.03;;;10.30;99.90;;;;;;5090307;28;20248;-34
2021/01/15 06:49:39;;;;;;;3.75;3.45;;;10.40;99.90;;;;;;5090343;28;20210;-30
2021/01/15 06:52:13;;;;;;;5.50;4.03;;;10.40;99.90;;;;;;5110017;28;20272;-33
2021/01/15 06:54:47;;;;;;;8.10;6.28;;;10.40;99.90;;;;;;5109600;28;20257;-31
2021/01/15 06:57:20;;;;;;;5.85;5.35;;;10.60;99.90;;;;;;5109541;28;20189;-35
2021/01/15 06:59:53;;;;;;;8.00;5.28;;;10.60;99.90;;;;;;5110115;28;20695;-35
2021/01/15 07:02:58;;;;;;;7.88;5.80;;;10.60;99.90;;;;;;5108584;28;20194;-36
2021/01/15 07:05:31;;;;;;;5.90;5.30;;;10.50;99.90;;;;;;5108439;28;20640;-34
2021/01/15 07:08:03;;;;;;;8.30;7.25;;;10.50;99.90;;;;;;5107687;28;20208;-31
2021/01/15 07:10:36;;;;;;;8.77;5.97;;;10.50;99.90;;;;;;5100862;28;20604;-33
2021/01/15 07:13:10;;;;;;;7.82;5.80;;;10.50;99.90;;;;;;5100812;28;20255;-35
2021/01/15 07:15:44;;;;;;;6.72;6.03;;;10.60;99.90;;;;;;5108583;28;20640;-33
2021/01/15 07:18:26;;;;;;;6.43;5.82;;;10.50;99.90;;;;;;5106861;28;20204;-34
2021/01/15 07:20:58;;;;;;;6.40;5.72;;;10.40;99.90;;;;;;5106970;28;20274;-33
2021/01/15 07:24:03;;;;;;;6.70;5.85;;;10.50;99.90;;;;;;5109934;28;20206;-34
2021/01/15 07:26:39;;;;;;;6.35;5.75;;;10.40;99.90;;;;;;5082405;28;20213;-32
2021/01/15 07:29:11;;;;;;;7.50;5.82;;;10.40;99.90;;;;;;5105843;28;20194;-36
2021/01/15 07:31:51;;;;;;;6.90;4.68;;;10.40;99.90;;;;;;5109371;28;20552;-31
2021/01/15 07:34:26;;;;;;;5.40;4.68;;;10.50;99.90;;;;;;5109011;28;20214;-36
2021/01/15 07:36:56;;;;;;;6.20;4.20;;;10.50;99.90;;;;;;5109854;28;20683;-32
2021/01/15 07:39:27;;;;;;;7.00;4.35;;;10.50;99.90;;;;;;5109639;28;20483;-33
2021/01/15 07:41:57;;;;;;;4.22;3.83;;;10.50;99.90;;;;;;5096621;28;20211;-32
2021/01/15 07:44:39;;;;;;;3.60;3.20;;;10.40;99.90;;;;;;5109617;28;20256;-34
2021/01/15 07:47:22;;;;;;;5.03;2.60;;;10.50;99.90;;;;;;5096291;28;20349;-31
2021/01/15 07:49:52;;;;;;;4.72;2.35;;;10.50;99.90;;;;;;5091883;28;20206;-29
2021/01/15 07:52:22;;;;;;;2.28;1.90;;;10.20;99.90;;;;;;5108976;28;20228;-36
2021/01/15 07:55:00;;;;;;;4.25;1.77;;;10.10;99.90;;;;;;5099866;28;20205;-32
2021/01/15 07:57:32;;;;;;;3.42;2.08;;;10.10;99.90;;;;;;5103701;28;20193;-30
2021/01/15 08:00:25;;;;;;;3.83;1.52;;;10.10;99.90;;;;;;5108438;28;20284;-34
2021/01/15 08:03:03;;;;;;;1.83;1.20;;;10.00;99.90;;;;;;5109509;28;20199;-33
2021/01/15 08:05:33;;;;;;;3.78;1.63;;;9.80;99.90;;;;;;5109153;28;20296;-31
2021/01/15 08:08:10;;;;;;;1.98;1.42;;;9.70;99.90;;;;;;5105924;28;20251;-31
2021/01/15 08:10:51;;;;;;;7.03;2.08;;;9.60;99.90;;;;;;5108594;28;20690;-30
2021/01/15 08:13:23;;;;;;;2.53;1.55;;;9.50;99.90;;;;;;5109561;28;20196;-33
2021/01/15 08:15:54;;;;;;;1.83;1.48;;;9.20;99.90;;;;;;5112434;28;20648;-28
2021/01/15 08:18:26;;;;;;;3.03;1.77;;;9.10;99.90;;;;;;5100382;28;20192;-30
2021/01/15 08:20:57;;;;;;;2.85;2.17;;;9.00;99.90;;;;;;5109376;28;20257;-28
2021/01/15 08:23:28;;;;;;;3.58;1.92;;;8.90;99.90;;;;;;5112980;28;20529;-29
2021/01/15 08:26:22;;;;;;;2.78;1.92;;;8.80;99.90;;;;;;5108170;28;20663;-30
2021/01/15 08:28:52;;;;;;;2.88;1.60;;;8.80;99.90;;;;;;5103954;28;20620;-27
2021/01/15 08:31:23;;;;;;;1.67;1.45;;;8.70;99.90;;;;;;5110121;27;20348;-28
2021/01/15 08:34:12;;;;;;;3.22;1.67;;;8.70;99.90;;;;;;5109864;27;20205;-28
2021/01/15 08:36:44;;;;;;;2.55;2.17;;;8.70;99.90;;;;;;5107375;28;20265;-34
2021/01/15 08:39:14;;;;;;;2.47;1.85;;;8.70;99.90;;;;;;5112571;28;20188;-31
2021/01/15 08:41:44;;;;;;;5.45;1.80;;;8.60;99.90;;;;;;5110144;28;20248;-28
2021/01/15 08:44:15;;;;;;;3.17;1.77;;;8.60;99.90;;;;;;5103154;28;20196;-28
2021/01/15 08:46:46;;;;;;;3.95;2.25;;;8.60;99.90;;;;;;5112425;28;20336;-31
2021/01/15 08:49:17;;;;;;;3.58;1.73;;;8.50;99.90;;;;;;5112742;28;20540;-30
2021/01/15 08:51:51;;;;;;;5.53;1.85;;;8.50;99.90;;;;;;5107194;28;20640;-31
2021/01/15 08:54:24;;;;;;;2.83;1.60;;;8.50;99.90;;;;;;5110877;28;20183;-29
2021/01/15 08:56:54;;;;;;;2.78;1.70;;;8.60;99.90;;;;;;5101798;28;20192;-34
2021/01/15 08:59:29;;;;;;;3.75;2.15;;;8.60;99.90;;;;;;5105324;28;20214;-28
2021/01/15 09:02:00;;;;;;;5.50;2.30;;;8.60;99.90;;;;;;5112413;28;20229;-32
2021/01/15 09:04:32;;;;;;;2.22;1.95;;;8.60;99.90;;;;;;5111465;28;20315;-32
2021/01/15 09:07:04;;;;;;;4.07;1.80;;;8.60;99.90;;;;;;5112286;28;20189;-30
2021/01/15 09:09:35;;;;;;;3.13;2.10;;;8.60;99.90;;;;;;5112353;28;20199;-32
2021/01/15 09:12:07;;;;;;;4.68;1.80;;;8.60;99.90;;;;;;5111197;28;20205;-26
2021/01/15 09:14:37;;;;;;;2.47;1.52;;;8.60;99.90;;;;;;5111493;28;20667;-32
2021/01/15 09:17:08;;;;;;;3.40;1.77;;;8.60;99.90;;;;;;5112314;28;20292;-28
2021/01/15 09:19:40;;;;;;;4.95;2.13;;;8.60;99.90;;;;;;5110286;28;20196;-29
2021/01/15 09:22:18;;;;;;;4.85;1.90;;;8.70;99.90;;;;;;5111846;28;20243;-28
2021/01/15 09:24:48;;;;;;;1.88;1.50;;;8.60;99.90;;;;;;5101995;28;20192;-31
2021/01/15 09:27:23;;;;;;;3.75;2.03;;;8.60;99.90;;;;;;5111347;28;20261;-32
2021/01/15 09:29:53;;;;;;;2.25;1.70;;;8.60;99.90;;;;;;5103768;28;20678;-29
2021/01/15 09:32:23;;;;;;;3.88;2.17;;;8.50;99.90;;;;;;5111785;28;20704;-27
2021/01/15 09:34:55;;;;;;;7.50;2.50;;;8.50;99.90;;;;;;5111931;28;20702;-32
2021/01/15 09:37:25;;;;;;;2.22;1.90;;;8.60;99.90;;;;;;5111835;28;20623;-30
2021/01/15 09:39:55;;;;;;;4.32;2.30;;;8.60;99.90;;;;;;5110341;28;20610;-32
2021/01/15 09:42:25;;;;;;;4.25;2.20;;;8.60;99.90;;;;;;5109310;28;20188;-27
2021/01/15 09:44:55;;;;;;;3.30;2.50;;;8.50;99.90;;;;;;5103068;28;20207;-32
2021/01/15 09:47:25;;;;;;;4.18;1.77;;;8.60;99.90;;;;;;5110999;28;20200;-30
2021/01/15 09:49:56;;;;;;;4.00;1.98;;;8.60;99.90;;;;;;5111273;28;20196;-26
2021/01/15 09:52:27;;;;;;;3.33;2.00;;;8.60;99.90;;;;;;5110931;28;20227;-30
2021/01/15 09:54:57;;;;;;;5.25;2.28;;;8.60;99.90;;;;;;5111244;28;20196;-27
2021/01/15 09:57:27;;;;;;;6.28;2.63;;;8.60;99.90;;;;;;5109804;28;20193;-33
2021/01/15 09:59:58;;;;;;;3.35;2.05;;;8.50;99.90;;;;;;5111059;28;20227;-28
2021/01/15 10:02:28;;;;;;;2.30;2.10;;;8.50;99.90;;;;;;5107637;27;20200;-28
2021/01/15 10:04:59;;;;;;;3.15;2.20;;;8.60;99.90;;;;;;5103619;28;20300;-32
2021/01/15 10:07:29;;;;;;;2.67;2.20;;;8.60;99.90;;;;;;5110699;28;20195;-31
2021/01/15 10:09:59;;;;;;;3.15;2.35;;;8.70;99.90;;;;;;5110709;28;20197;-30
2021/01/15 10:12:29;;;;;;;4.05;2.28;;;8.60;99.90;;;;;;5109535;28;20201;-33
2021/01/15 10:14:59;;;;;;;2.45;2.17;;;8.60;99.90;;;;;;5109287;28;20208;-29
2021/01/15 10:17:29;;;;;;;2.70;2.17;;;8.70;99.90;;;;;;5110543;28;20586;-31
2021/01/15 10:20:01;;;;;;;3.08;2.67;;;8.60;99.90;;;;;;5108994;28;20554;-29
2021/01/15 10:22:32;;;;;;;4.05;2.38;;;8.60;99.90;;;;;;5105222;28;20188;-30
2021/01/15 10:25:03;;;;;;;2.50;2.20;;;8.60;99.90;;;;;;5110309;28;20196;-30
2021/01/15 10:27:35;;;;;;;3.45;2.58;;;8.60;99.90;;;;;;5109347;28;20259;-29
2021/01/15 10:30:07;;;;;;;2.55;2.28;;;8.60;99.90;;;;;;5110192;28;20184;-30
2021/01/15 10:32:36;;;;;;;2.55;2.05;;;8.60;99.90;;;;;;5110342;28;20228;-31
2021/01/15 10:35:09;;;;;;;5.15;2.15;;;8.70;99.90;;;;;;5108506;28;20192;-37
2021/01/15 10:37:42;;;;;;;3.17;2.38;;;8.60;99.90;;;;;;5108829;28;20198;-35
2021/01/15 10:40:13;;;;;;;2.50;2.30;;;8.60;99.90;;;;;;5108446;28;20674;-30
2021/01/15 10:42:44;;;;;;;4.55;2.30;;;8.60;99.90;;;;;;5109077;28;20230;-33
2021/01/15 10:45:15;;;;;;;2.30;2.15;;;8.50;99.90;;;;;;5110324;28;20558;-27
2021/01/15 10:47:45;;;;;;;6.28;2.80;;;8.50;99.90;;;;;;5110118;28;20196;-30
2021/01/15 10:50:19;;;;;;;3.97;2.22;;;8.50;99.90;;;;;;5109842;28;20277;-27
2021/01/15 10:52:55;;;;;;;3.40;2.60;;;8.50;99.90;;;;;;5092371;28;20214;-29
2021/01/15 10:55:26;;;;;;;4.90;2.80;;;8.60;99.90;;;;;;5100645;28;20191;-34
2021/01/15 10:57:56;;;;;;;5.00;2.22;;;8.50;99.90;;;;;;5110115;28;20540;-33
2021/01/15 11:00:26;;;;;;;3.00;2.60;;;8.60;99.90;;;;;;5095005;28;20362;-28
2021/01/15 11:02:56;;;;;;;3.22;2.92;;;8.50;99.90;;;;;;5105393;28;20274;-33
2021/01/15 11:05:27;;;;;;;4.05;2.60;;;8.50;99.90;;;;;;5099623;28;20239;-30
2021/01/15 11:08:00;;;;;;;3.40;2.40;;;8.30;99.90;;;;;;5096640;28;20518;-28
2021/01/15 11:10:30;;;;;;;3.70;2.65;;;8.30;99.90;;;;;;5091876;28;20289;-29
2021/01/15 11:13:00;;;;;;;2.40;1.92;;;8.30;99.90;;;;;;5110074;28;20627;-31
2021/01/15 11:15:30;;;;;;;3.15;2.20;;;8.40;99.90;;;;;;5109656;28;20200;-27
2021/01/15 11:18:00;;;;;;;5.15;2.83;;;8.40;99.90;;;;;;5110038;28;20204;-33
2021/01/15 11:20:32;;;;;;;2.72;2.20;;;8.50;99.90;;;;;;5109165;28;20214;-25
2021/01/15 11:23:03;;;;;;;3.00;2.30;;;8.50;99.90;;;;;;5110103;28;20187;-36
2021/01/15 11:25:33;;;;;;;2.75;2.10;;;8.50;99.90;;;;;;5108567;28;20621;-31
2021/01/15 11:28:03;;;;;;;2.58;2.35;;;8.50;99.90;;;;;;5109165;28;20525;-29
2021/01/15 11:30:33;;;;;;;3.00;2.25;;;8.30;99.90;;;;;;5099643;28;20208;-29
2021/01/15 11:33:03;;;;;;;2.65;2.05;;;8.40;99.90;;;;;;5109800;28;20248;-29
2021/01/15 11:35:50;;;;;;;3.30;2.65;;;8.40;99.90;;;;;;5109757;28;20189;-28
2021/01/15 11:38:20;;;;;;;6.85;2.75;;;8.30;99.90;;;;;;5110090;28;20257;-32
2021/01/15 11:40:50;;;;;;;3.63;2.75;;;8.30;99.90;;;;;;5106523;28;20602;-30
2021/01/15 11:43:21;;;;;;;2.72;2.53;;;8.40;99.90;;;;;;5110210;28;20196;-28
2021/01/15 11:45:51;;;;;;;3.60;2.60;;;8.40;99.90;;;;;;5109477;28;20559;-32
2021/01/15 11:48:21;;;;;;;3.20;2.90;;;8.40;99.90;;;;;;5109103;28;20288;-29
2021/01/15 11:50:56;;;;;;;3.85;2.50;;;8.40;99.90;;;;;;5113275;28;20227;-29
2021/01/15 11:53:27;;;;;;;4.68;2.50;;;8.50;99.90;;;;;;5106358;28;20211;-30
2021/01/15 11:55:57;;;;;;;3.85;2.88;;;8.50;99.90;;;;;;5112627;28;20207;-33
2021/01/15 11:58:27;;;;;;;3.08;2.75;;;8.50;99.90;;;;;;5113468;27;20223;-26
2021/01/15 12:00:57;;;;;;;2.60;2.40;;;8.50;99.90;;;;;;5108156;28;20216;-29
2021/01/15 12:03:29;;;;;;;4.40;2.67;;;8.50;99.90;;;;;;5102618;28;20207;-32
2021/01/15 12:06:01;;;;;;;3.45;3.15;;;8.50;99.90;;;;;;5112873;28;20586;-35
2021/01/15 12:08:31;;;;;;;3.40;2.40;;;8.50;99.90;;;;;;5113457;28;20322;-33
2021/01/15 12:11:03;;;;;;;3.67;2.17;;;8.40;99.90;;;;;;5106864;27;20284;-31
2021/01/15 12:13:34;;;;;;;2.83;2.60;;;8.40;99.90;;;;;;5101047;28;20208;-32
2021/01/15 12:16:05;;;;;;;3.03;2.75;;;8.40;99.90;;;;;;5112927;28;20188;-29
2021/01/15 12:18:35;;;;;;;3.28;2.60;;;8.40;99.90;;;;;;5101259;28;20250;-30
2021/01/15 12:21:06;;;;;;;3.88;3.15;;;8.40;99.90;;;;;;5095179;28;20258;-28
2021/01/15 12:23:36;;;;;;;3.45;2.83;;;8.40;99.90;;;;;;5097742;28;20192;-28
2021/01/15 12:26:06;;;;;;;4.05;3.00;;;8.30;99.90;;;;;;5109533;28;20197;-32
2021/01/15 12:28:36;;;;;;;3.55;3.20;;;8.40;99.90;;;;;;5110451;28;20201;-30
2021/01/15 12:31:06;;;;;;;5.90;3.50;;;8.40;99.90;;;;;;5110126;28;20224;-32
2021/01/15 12:33:37;;;;;;;5.25;3.42;;;8.50;99.90;;;;;;5109925;28;20199;-27
2021/01/15 12:36:12;;;;;;;4.80;3.65;;;8.50;99.90;;;;;;5112661;28;20203;-31
2021/01/15 12:38:42;;;;;;;4.93;3.75;;;8.60;99.90;;;;;;5109651;28;20703;-29
2021/01/15 12:41:12;;;;;;;4.85;4.45;;;8.60;99.90;;;;;;5108789;28;20204;-30
2021/01/15 12:43:42;;;;;;;4.90;4.43;;;8.60;99.90;;;;;;5109452;28;20267;-30
2021/01/15 12:46:12;;;;;;;4.38;3.97;;;8.60;99.90;;;;;;5105886;28;20277;-31
2021/01/15 12:48:42;;;;;;;4.70;4.28;;;8.50;99.90;;;;;;5108121;28;20703;-26
2021/01/15 12:51:14;;;;;;;5.38;4.82;;;8.50;99.90;;;;;;5112015;28;20292;-28
2021/01/15 12:53:44;;;;;;;5.07;3.90;;;8.50;99.90;;;;;;5112014;28;20200;-30
2021/01/15 12:56:17;;;;;;;4.05;3.75;;;8.50;99.90;;;;;;5111581;28;20188;-27
2021/01/15 12:58:47;;;;;;;4.10;3.70;;;8.40;99.90;;;;;;5111497;28;20203;-31
2021/01/15 13:01:17;;;;;;;7.68;3.80;;;8.40;99.90;;;;;;5111159;28;20200;-32
2021/01/15 13:03:47;;;;;;;3.67;3.38;;;8.40;99.90;;;;;;5110999;28;20280;-31
2021/01/15 13:06:18;;;;;;;3.85;3.55;;;8.50;99.90;;;;;;5107416;28;20192;-29
2021/01/15 13:08:48;;;;;;;3.30;3.00;;;8.50;99.90;;;;;;5109096;28;20321;-30
2021/01/15 13:11:18;;;;;;;3.55;3.15;;;8.50;99.90;;;;;;5110429;28;20236;-29
2021/01/15 13:14:00;;;;;;;3.38;3.08;;;8.60;99.90;;;;;;5095647;28;20265;-28
2021/01/15 13:16:31;;;;;;;5.13;4.00;;;8.50;99.90;;;;;;5111831;28;20265;-30
2021/01/15 13:19:01;;;;;;;3.55;3.25;;;8.50;99.90;;;;;;5112109;28;20196;-28
2021/01/15 13:21:32;;;;;;;3.83;3.38;;;8.50;99.90;;;;;;5111627;28;20195;-30
2021/01/15 13:24:02;;;;;;;3.63;3.33;;;8.50;99.90;;;;;;5111583;28;20199;-31
2021/01/15 13:26:33;;;;;;;4.82;3.00;;;8.40;99.90;;;;;;5109702;28;20273;-27
2021/01/15 13:29:04;;;;;;;2.88;2.67;;;8.40;99.90;;;;;;5103883;28;20208;-33
2021/01/15 13:31:34;;;;;;;4.03;3.70;;;8.50;99.90;;;;;;5106834;28;20226;-26